sensor_id;sensor_type;location;lat;lon;timestamp;P1;durP1;ratioP1;P2;durP2;ratioP2
59970;SDS011;45825;45.434;9.116;2022-11-04T00:01:13;24.95;;;14.75;;
59970;SDS011;45825;45.434;9.116;2022-11-04T00:03:38;25.80;;;14.73;;
59970;SDS011;45825;45.434;9.116;2022-11-04T00:06:03;21.13;;;14.20;;
59970;SDS011;45825;45.434;9.116;2022-11-04T00:08:29;20.83;;;13.27;;
59970;SDS011;45825;45.434;9.116;2022-11-04T00:10:54;21.30;;;12.65;;
59970;SDS011;45825;45.434;9.116;2022-11-04T00:13:39;22.27;;;13.48;;
59970;SDS011;45825;45.434;9.116;2022-11-04T00:16:04;21.10;;;13.60;;
59970;SDS011;45825;45.434;9.116;2022-11-04T00:18:48;22.90;;;14.07;;
59970;SDS011;45825;45.434;9.116;2022-11-04T00:21:14;24.13;;;14.52;;
59970;SDS011;45825;45.434;9.116;2022-11-04T00:23:57;24.10;;;14.38;;
59970;SDS011;45825;45.434;9.116;2022-11-04T00:26:41;25.08;;;15.35;;
59970;SDS011;45825;45.434;9.116;2022-11-04T00:29:25;24.15;;;15.27;;
59970;SDS011;45825;45.434;9.116;2022-11-04T00:31:51;23.55;;;15.95;;
59970;SDS011;45825;45.434;9.116;2022-11-04T00:34:34;23.75;;;15.55;;
59970;SDS011;45825;45.434;9.116;2022-11-04T00:36:59;24.60;;;15.65;;
59970;SDS011;45825;45.434;9.116;2022-11-04T00:39:27;24.00;;;16.05;;
59970;SDS011;45825;45.434;9.116;2022-11-04T00:41:52;27.15;;;16.38;;
59970;SDS011;45825;45.434;9.116;2022-11-04T00:44:17;22.23;;;15.32;;
59970;SDS011;45825;45.434;9.116;2022-11-04T00:46:43;22.95;;;15.52;;
59970;SDS011;45825;45.434;9.116;2022-11-04T00:49:08;21.88;;;15.65;;
59970;SDS011;45825;45.434;9.116;2022-11-04T00:51:33;22.52;;;15.00;;
59970;SDS011;45825;45.434;9.116;2022-11-04T00:53:59;21.27;;;14.43;;
59970;SDS011;45825;45.434;9.116;2022-11-04T00:56:24;22.00;;;14.30;;
59970;SDS011;45825;45.434;9.116;2022-11-04T00:58:50;23.20;;;14.93;;
59970;SDS011;45825;45.434;9.116;2022-11-04T01:01:15;20.75;;;14.40;;
59970;SDS011;45825;45.434;9.116;2022-11-04T01:03:42;22.05;;;13.90;;
59970;SDS011;45825;45.434;9.116;2022-11-04T01:06:08;20.13;;;12.80;;
59970;SDS011;45825;45.434;9.116;2022-11-04T01:08:33;18.55;;;12.85;;
59970;SDS011;45825;45.434;9.116;2022-11-04T01:11:08;15.95;;;11.00;;
59970;SDS011;45825;45.434;9.116;2022-11-04T01:13:34;15.73;;;9.85;;
59970;SDS011;45825;45.434;9.116;2022-11-04T01:16:00;11.02;;;6.55;;
59970;SDS011;45825;45.434;9.116;2022-11-04T01:18:28;9.38;;;5.85;;
59970;SDS011;45825;45.434;9.116;2022-11-04T01:20:53;11.30;;;6.43;;
59970;SDS011;45825;45.434;9.116;2022-11-04T01:23:19;10.73;;;6.18;;
59970;SDS011;45825;45.434;9.116;2022-11-04T01:25:45;9.07;;;5.13;;
59970;SDS011;45825;45.434;9.116;2022-11-04T01:28:10;8.70;;;5.82;;
59970;SDS011;45825;45.434;9.116;2022-11-04T01:30:38;12.35;;;7.28;;
59970;SDS011;45825;45.434;9.116;2022-11-04T01:33:04;13.18;;;8.23;;
59970;SDS011;45825;45.434;9.116;2022-11-04T01:35:29;12.18;;;6.75;;
59970;SDS011;45825;45.434;9.116;2022-11-04T01:37:56;11.40;;;7.95;;
59970;SDS011;45825;45.434;9.116;2022-11-04T01:40:22;10.88;;;7.47;;
59970;SDS011;45825;45.434;9.116;2022-11-04T01:42:48;10.15;;;7.10;;
59970;SDS011;45825;45.434;9.116;2022-11-04T01:45:13;9.35;;;6.28;;
59970;SDS011;45825;45.434;9.116;2022-11-04T01:47:43;8.43;;;5.72;;
59970;SDS011;45825;45.434;9.116;2022-11-04T01:50:24;8.50;;;4.77;;
59970;SDS011;45825;45.434;9.116;2022-11-04T01:52:53;8.05;;;4.68;;
59970;SDS011;45825;45.434;9.116;2022-11-04T01:55:42;8.20;;;4.60;;
59970;SDS011;45825;45.434;9.116;2022-11-04T01:58:14;6.82;;;3.78;;
59970;SDS011;45825;45.434;9.116;2022-11-04T02:00:42;6.65;;;3.97;;
59970;SDS011;45825;45.434;9.116;2022-11-04T02:03:08;9.07;;;6.28;;
59970;SDS011;45825;45.434;9.116;2022-11-04T02:05:35;9.18;;;5.88;;
59970;SDS011;45825;45.434;9.116;2022-11-04T02:08:01;8.95;;;5.38;;
59970;SDS011;45825;45.434;9.116;2022-11-04T02:10:30;8.35;;;4.80;;
59970;SDS011;45825;45.434;9.116;2022-11-04T02:12:56;9.55;;;5.10;;
59970;SDS011;45825;45.434;9.116;2022-11-04T02:29:12;11.77;;;7.65;;
59970;SDS011;45825;45.434;9.116;2022-11-04T02:31:43;9.07;;;5.90;;
59970;SDS011;45825;45.434;9.116;2022-11-04T02:36:51;9.63;;;6.95;;
59970;SDS011;45825;45.434;9.116;2022-11-04T02:42:23;7.55;;;4.50;;
59970;SDS011;45825;45.434;9.116;2022-11-04T02:45:02;6.05;;;3.83;;
59970;SDS011;45825;45.434;9.116;2022-11-04T02:47:32;6.45;;;3.60;;
59970;SDS011;45825;45.434;9.116;2022-11-04T02:52:39;4.15;;;2.40;;
59970;SDS011;45825;45.434;9.116;2022-11-04T02:55:10;3.78;;;2.40;;
59970;SDS011;45825;45.434;9.116;2022-11-04T02:57:37;4.00;;;2.10;;
59970;SDS011;45825;45.434;9.116;2022-11-04T03:00:06;4.45;;;1.60;;
59970;SDS011;45825;45.434;9.116;2022-11-04T03:02:43;3.92;;;1.70;;
59970;SDS011;45825;45.434;9.116;2022-11-04T03:05:13;2.75;;;1.50;;
59970;SDS011;45825;45.434;9.116;2022-11-04T03:07:43;3.07;;;1.13;;
59970;SDS011;45825;45.434;9.116;2022-11-04T03:10:30;3.35;;;1.33;;
59970;SDS011;45825;45.434;9.116;2022-11-04T03:13:11;2.97;;;1.10;;
59970;SDS011;45825;45.434;9.116;2022-11-04T03:15:40;1.63;;;0.93;;
59970;SDS011;45825;45.434;9.116;2022-11-04T03:18:21;2.67;;;0.90;;
59970;SDS011;45825;45.434;9.116;2022-11-04T03:20:57;0.93;;;0.52;;
59970;SDS011;45825;45.434;9.116;2022-11-04T03:23:26;1.33;;;0.50;;
59970;SDS011;45825;45.434;9.116;2022-11-04T03:25:52;0.88;;;0.30;;
59970;SDS011;45825;45.434;9.116;2022-11-04T03:28:34;0.57;;;0.20;;
59970;SDS011;45825;45.434;9.116;2022-11-04T03:31:07;0.93;;;0.17;;
59970;SDS011;45825;45.434;9.116;2022-11-04T03:33:44;0.98;;;0.20;;
59970;SDS011;45825;45.434;9.116;2022-11-04T03:36:12;1.17;;;0.30;;
59970;SDS011;45825;45.434;9.116;2022-11-04T03:38:38;0.17;;;0.17;;
59970;SDS011;45825;45.434;9.116;2022-11-04T03:41:06;0.20;;;0.20;;
59970;SDS011;45825;45.434;9.116;2022-11-04T03:43:37;0.10;;;0.10;;
59970;SDS011;45825;45.434;9.116;2022-11-04T03:46:05;0.25;;;0.20;;
59970;SDS011;45825;45.434;9.116;2022-11-04T03:48:30;0.95;;;0.20;;
59970;SDS011;45825;45.434;9.116;2022-11-04T03:50:57;0.95;;;0.20;;
59970;SDS011;45825;45.434;9.116;2022-11-04T03:53:22;0.30;;;0.30;;
59970;SDS011;45825;45.434;9.116;2022-11-04T03:58:34;0.77;;;0.40;;
59970;SDS011;45825;45.434;9.116;2022-11-04T04:01:12;0.35;;;0.30;;
59970;SDS011;45825;45.434;9.116;2022-11-04T04:06:53;0.63;;;0.38;;
59970;SDS011;45825;45.434;9.116;2022-11-04T04:09:49;0.32;;;0.20;;
59970;SDS011;45825;45.434;9.116;2022-11-04T04:12:25;0.20;;;0.20;;
59970;SDS011;45825;45.434;9.116;2022-11-04T04:14:55;0.40;;;0.20;;
59970;SDS011;45825;45.434;9.116;2022-11-04T04:19:59;0.40;;;0.30;;
59970;SDS011;45825;45.434;9.116;2022-11-04T04:22:29;0.20;;;0.20;;
59970;SDS011;45825;45.434;9.116;2022-11-04T04:24:58;0.52;;;0.20;;
59970;SDS011;45825;45.434;9.116;2022-11-04T04:27:45;0.65;;;0.20;;
59970;SDS011;45825;45.434;9.116;2022-11-04T04:30:13;0.20;;;0.20;;
59970;SDS011;45825;45.434;9.116;2022-11-04T04:32:41;1.13;;;0.43;;
59970;SDS011;45825;45.434;9.116;2022-11-04T04:35:10;0.60;;;0.30;;
59970;SDS011;45825;45.434;9.116;2022-11-04T04:37:55;0.20;;;0.20;;
59970;SDS011;45825;45.434;9.116;2022-11-04T04:40:45;0.20;;;0.20;;
59970;SDS011;45825;45.434;9.116;2022-11-04T04:43:40;0.82;;;0.30;;
59970;SDS011;45825;45.434;9.116;2022-11-04T04:46:26;1.02;;;0.30;;
59970;SDS011;45825;45.434;9.116;2022-11-04T04:48:53;0.35;;;0.20;;
59970;SDS011;45825;45.434;9.116;2022-11-04T04:51:18;0.75;;;0.30;;
59970;SDS011;45825;45.434;9.116;2022-11-04T04:53:44;0.75;;;0.35;;
59970;SDS011;45825;45.434;9.116;2022-11-04T04:56:09;0.32;;;0.32;;
59970;SDS011;45825;45.434;9.116;2022-11-04T04:58:34;0.50;;;0.28;;
59970;SDS011;45825;45.434;9.116;2022-11-04T05:01:00;0.30;;;0.17;;
59970;SDS011;45825;45.434;9.116;2022-11-04T05:03:25;2.38;;;0.55;;
59970;SDS011;45825;45.434;9.116;2022-11-04T05:05:50;2.33;;;0.47;;
59970;SDS011;45825;45.434;9.116;2022-11-04T05:08:16;0.20;;;0.20;;
59970;SDS011;45825;45.434;9.116;2022-11-04T05:10:41;0.60;;;0.38;;
59970;SDS011;45825;45.434;9.116;2022-11-04T05:13:06;0.55;;;0.20;;
59970;SDS011;45825;45.434;9.116;2022-11-04T05:15:51;0.77;;;0.30;;
59970;SDS011;45825;45.434;9.116;2022-11-04T05:18:17;1.05;;;0.30;;
59970;SDS011;45825;45.434;9.116;2022-11-04T05:20:42;0.30;;;0.30;;
59970;SDS011;45825;45.434;9.116;2022-11-04T05:23:07;0.90;;;0.40;;
59970;SDS011;45825;45.434;9.116;2022-11-04T05:25:36;0.50;;;0.22;;
59970;SDS011;45825;45.434;9.116;2022-11-04T05:28:03;0.73;;;0.30;;
59970;SDS011;45825;45.434;9.116;2022-11-04T05:30:29;2.40;;;0.30;;
59970;SDS011;45825;45.434;9.116;2022-11-04T05:32:55;1.42;;;0.38;;
59970;SDS011;45825;45.434;9.116;2022-11-04T05:35:20;2.88;;;0.20;;
59970;SDS011;45825;45.434;9.116;2022-11-04T05:37:45;4.22;;;0.50;;
59970;SDS011;45825;45.434;9.116;2022-11-04T05:40:11;1.17;;;0.20;;
59970;SDS011;45825;45.434;9.116;2022-11-04T05:42:36;0.70;;;0.20;;
59970;SDS011;45825;45.434;9.116;2022-11-04T05:45:02;0.95;;;0.40;;
59970;SDS011;45825;45.434;9.116;2022-11-04T05:47:28;0.57;;;0.20;;
59970;SDS011;45825;45.434;9.116;2022-11-04T05:49:53;0.25;;;0.20;;
59970;SDS011;45825;45.434;9.116;2022-11-04T05:52:19;0.77;;;0.20;;
59970;SDS011;45825;45.434;9.116;2022-11-04T05:54:44;0.90;;;0.20;;
59970;SDS011;45825;45.434;9.116;2022-11-04T05:57:09;1.08;;;0.20;;
59970;SDS011;45825;45.434;9.116;2022-11-04T05:59:35;0.38;;;0.20;;
59970;SDS011;45825;45.434;9.116;2022-11-04T06:02:01;0.20;;;0.20;;
59970;SDS011;45825;45.434;9.116;2022-11-04T06:04:27;0.68;;;0.20;;
59970;SDS011;45825;45.434;9.116;2022-11-04T06:06:52;0.25;;;0.20;;
59970;SDS011;45825;45.434;9.116;2022-11-04T06:09:17;0.63;;;0.28;;
59970;SDS011;45825;45.434;9.116;2022-11-04T06:11:43;0.20;;;0.20;;
59970;SDS011;45825;45.434;9.116;2022-11-04T06:14:09;0.50;;;0.30;;
59970;SDS011;45825;45.434;9.116;2022-11-04T06:16:34;0.15;;;0.15;;
59970;SDS011;45825;45.434;9.116;2022-11-04T06:19:00;0.43;;;0.20;;
59970;SDS011;45825;45.434;9.116;2022-11-04T06:21:26;0.93;;;0.20;;
59970;SDS011;45825;45.434;9.116;2022-11-04T06:23:53;0.30;;;0.20;;
59970;SDS011;45825;45.434;9.116;2022-11-04T06:26:23;0.95;;;0.32;;
59970;SDS011;45825;45.434;9.116;2022-11-04T06:28:50;0.73;;;0.28;;
59970;SDS011;45825;45.434;9.116;2022-11-04T06:31:15;0.65;;;0.30;;
59970;SDS011;45825;45.434;9.116;2022-11-04T06:33:41;0.75;;;0.38;;
59970;SDS011;45825;45.434;9.116;2022-11-04T06:36:08;0.52;;;0.38;;
59970;SDS011;45825;45.434;9.116;2022-11-04T06:38:36;0.77;;;0.30;;
59970;SDS011;45825;45.434;9.116;2022-11-04T06:41:02;0.40;;;0.22;;
59970;SDS011;45825;45.434;9.116;2022-11-04T06:43:29;1.48;;;0.40;;
59970;SDS011;45825;45.434;9.116;2022-11-04T06:45:55;1.75;;;0.38;;
59970;SDS011;45825;45.434;9.116;2022-11-04T06:48:21;2.67;;;0.70;;
59970;SDS011;45825;45.434;9.116;2022-11-04T06:50:46;1.63;;;0.60;;
59970;SDS011;45825;45.434;9.116;2022-11-04T06:53:11;0.57;;;0.40;;
59970;SDS011;45825;45.434;9.116;2022-11-04T06:55:37;1.38;;;0.40;;
59970;SDS011;45825;45.434;9.116;2022-11-04T06:58:02;0.52;;;0.40;;
59970;SDS011;45825;45.434;9.116;2022-11-04T07:00:27;0.55;;;0.40;;
59970;SDS011;45825;45.434;9.116;2022-11-04T07:02:53;0.32;;;0.32;;
59970;SDS011;45825;45.434;9.116;2022-11-04T07:05:18;0.90;;;0.50;;
59970;SDS011;45825;45.434;9.116;2022-11-04T07:07:43;1.00;;;0.38;;
59970;SDS011;45825;45.434;9.116;2022-11-04T07:10:09;0.85;;;0.50;;
59970;SDS011;45825;45.434;9.116;2022-11-04T07:12:35;1.25;;;0.30;;
59970;SDS011;45825;45.434;9.116;2022-11-04T07:15:00;1.42;;;0.50;;
59970;SDS011;45825;45.434;9.116;2022-11-04T07:17:25;1.42;;;0.55;;
59970;SDS011;45825;45.434;9.116;2022-11-04T07:19:51;0.80;;;0.60;;
59970;SDS011;45825;45.434;9.116;2022-11-04T07:22:16;2.35;;;0.52;;
59970;SDS011;45825;45.434;9.116;2022-11-04T07:24:42;1.08;;;0.50;;
59970;SDS011;45825;45.434;9.116;2022-11-04T07:27:07;1.35;;;0.57;;
59970;SDS011;45825;45.434;9.116;2022-11-04T07:29:33;1.58;;;0.55;;
59970;SDS011;45825;45.434;9.116;2022-11-04T07:31:58;1.00;;;0.50;;
59970;SDS011;45825;45.434;9.116;2022-11-04T07:34:23;1.17;;;0.50;;
59970;SDS011;45825;45.434;9.116;2022-11-04T07:36:49;1.27;;;0.60;;
59970;SDS011;45825;45.434;9.116;2022-11-04T07:39:14;2.00;;;0.70;;
59970;SDS011;45825;45.434;9.116;2022-11-04T07:41:40;0.70;;;0.47;;
59970;SDS011;45825;45.434;9.116;2022-11-04T07:44:05;0.88;;;0.60;;
59970;SDS011;45825;45.434;9.116;2022-11-04T07:46:31;1.40;;;0.70;;
59970;SDS011;45825;45.434;9.116;2022-11-04T07:48:57;2.58;;;0.70;;
59970;SDS011;45825;45.434;9.116;2022-11-04T07:51:23;1.27;;;0.60;;
59970;SDS011;45825;45.434;9.116;2022-11-04T07:53:49;2.83;;;0.80;;
59970;SDS011;45825;45.434;9.116;2022-11-04T07:56:15;0.75;;;0.50;;
59970;SDS011;45825;45.434;9.116;2022-11-04T07:58:43;0.80;;;0.40;;
59970;SDS011;45825;45.434;9.116;2022-11-04T08:01:10;1.92;;;0.65;;
59970;SDS011;45825;45.434;9.116;2022-11-04T08:03:37;3.40;;;0.68;;
59970;SDS011;45825;45.434;9.116;2022-11-04T08:06:04;1.55;;;0.70;;
59970;SDS011;45825;45.434;9.116;2022-11-04T08:08:31;1.67;;;0.55;;
59970;SDS011;45825;45.434;9.116;2022-11-04T08:10:59;2.67;;;0.75;;
59970;SDS011;45825;45.434;9.116;2022-11-04T08:13:27;2.10;;;0.75;;
59970;SDS011;45825;45.434;9.116;2022-11-04T08:15:53;2.83;;;0.60;;
59970;SDS011;45825;45.434;9.116;2022-11-04T08:18:18;0.98;;;0.60;;
59970;SDS011;45825;45.434;9.116;2022-11-04T08:20:47;1.30;;;0.70;;
59970;SDS011;45825;45.434;9.116;2022-11-04T08:23:14;1.90;;;0.60;;
59970;SDS011;45825;45.434;9.116;2022-11-04T08:25:40;2.22;;;0.60;;
59970;SDS011;45825;45.434;9.116;2022-11-04T08:28:05;2.17;;;0.80;;
59970;SDS011;45825;45.434;9.116;2022-11-04T08:30:31;1.17;;;0.70;;
59970;SDS011;45825;45.434;9.116;2022-11-04T08:32:57;1.35;;;0.70;;
59970;SDS011;45825;45.434;9.116;2022-11-04T08:35:23;3.35;;;0.80;;
59970;SDS011;45825;45.434;9.116;2022-11-04T08:37:48;1.35;;;0.60;;
59970;SDS011;45825;45.434;9.116;2022-11-04T08:40:14;3.17;;;1.00;;
59970;SDS011;45825;45.434;9.116;2022-11-04T08:42:39;3.55;;;0.60;;
59970;SDS011;45825;45.434;9.116;2022-11-04T08:45:05;1.40;;;0.60;;
59970;SDS011;45825;45.434;9.116;2022-11-04T08:47:30;2.83;;;0.55;;
59970;SDS011;45825;45.434;9.116;2022-11-04T08:49:56;2.60;;;0.60;;
59970;SDS011;45825;45.434;9.116;2022-11-04T08:52:21;1.75;;;0.63;;
59970;SDS011;45825;45.434;9.116;2022-11-04T08:54:47;1.33;;;0.60;;
59970;SDS011;45825;45.434;9.116;2022-11-04T08:57:13;1.58;;;0.70;;
59970;SDS011;45825;45.434;9.116;2022-11-04T08:59:38;4.25;;;0.70;;
59970;SDS011;45825;45.434;9.116;2022-11-04T09:02:03;2.85;;;0.70;;
59970;SDS011;45825;45.434;9.116;2022-11-04T09:04:29;2.47;;;0.47;;
59970;SDS011;45825;45.434;9.116;2022-11-04T09:06:54;3.20;;;0.70;;
59970;SDS011;45825;45.434;9.116;2022-11-04T09:09:20;2.45;;;0.73;;
59970;SDS011;45825;45.434;9.116;2022-11-04T09:11:46;1.85;;;0.73;;
59970;SDS011;45825;45.434;9.116;2022-11-04T09:14:11;1.60;;;0.77;;
59970;SDS011;45825;45.434;9.116;2022-11-04T09:16:38;3.15;;;0.90;;
59970;SDS011;45825;45.434;9.116;2022-11-04T09:19:05;5.18;;;1.20;;
59970;SDS011;45825;45.434;9.116;2022-11-04T09:21:31;1.77;;;0.73;;
59970;SDS011;45825;45.434;9.116;2022-11-04T09:23:56;3.22;;;1.00;;
59970;SDS011;45825;45.434;9.116;2022-11-04T09:26:22;3.33;;;0.90;;
59970;SDS011;45825;45.434;9.116;2022-11-04T09:28:51;2.45;;;0.82;;
59970;SDS011;45825;45.434;9.116;2022-11-04T09:31:19;1.90;;;0.77;;
59970;SDS011;45825;45.434;9.116;2022-11-04T09:33:45;3.17;;;0.95;;
59970;SDS011;45825;45.434;9.116;2022-11-04T09:36:11;2.15;;;0.88;;
59970;SDS011;45825;45.434;9.116;2022-11-04T09:38:37;1.83;;;0.85;;
59970;SDS011;45825;45.434;9.116;2022-11-04T09:46:43;1.73;;;0.80;;
59970;SDS011;45825;45.434;9.116;2022-11-04T09:49:13;1.27;;;0.70;;
59970;SDS011;45825;45.434;9.116;2022-11-04T09:51:40;2.83;;;0.73;;
59970;SDS011;45825;45.434;9.116;2022-11-04T09:54:13;1.15;;;0.70;;
59970;SDS011;45825;45.434;9.116;2022-11-04T09:56:46;1.45;;;0.70;;
59970;SDS011;45825;45.434;9.116;2022-11-04T09:59:14;1.67;;;0.60;;
59970;SDS011;45825;45.434;9.116;2022-11-04T10:04:33;1.20;;;1.05;;
59970;SDS011;45825;45.434;9.116;2022-11-04T10:20:30;2.08;;;0.60;;
59970;SDS011;45825;45.434;9.116;2022-11-04T10:28:02;1.35;;;0.52;;
59970;SDS011;45825;45.434;9.116;2022-11-04T10:30:28;1.95;;;0.60;;
59970;SDS011;45825;45.434;9.116;2022-11-04T10:35:40;0.93;;;0.57;;
59970;SDS011;45825;45.434;9.116;2022-11-04T10:40:41;2.00;;;0.70;;
59970;SDS011;45825;45.434;9.116;2022-11-04T10:43:12;1.02;;;0.60;;
59970;SDS011;45825;45.434;9.116;2022-11-04T10:45:56;1.10;;;0.57;;
59970;SDS011;45825;45.434;9.116;2022-11-04T10:48:48;1.63;;;0.40;;
59970;SDS011;45825;45.434;9.116;2022-11-04T10:51:18;0.88;;;0.40;;
59970;SDS011;45825;45.434;9.116;2022-11-04T10:53:46;2.08;;;0.68;;
59970;SDS011;45825;45.434;9.116;2022-11-04T10:56:34;0.60;;;0.40;;
59970;SDS011;45825;45.434;9.116;2022-11-04T11:01:54;1.15;;;0.40;;
59970;SDS011;45825;45.434;9.116;2022-11-04T11:04:25;1.55;;;0.50;;
59970;SDS011;45825;45.434;9.116;2022-11-04T11:06:55;2.85;;;0.63;;
59970;SDS011;45825;45.434;9.116;2022-11-04T11:09:24;1.52;;;0.60;;
59970;SDS011;45825;45.434;9.116;2022-11-04T11:11:58;1.33;;;0.60;;
59970;SDS011;45825;45.434;9.116;2022-11-04T11:22:40;0.80;;;0.68;;
59970;SDS011;45825;45.434;9.116;2022-11-04T11:25:20;2.58;;;0.50;;
59970;SDS011;45825;45.434;9.116;2022-11-04T11:27:49;1.65;;;0.60;;
59970;SDS011;45825;45.434;9.116;2022-11-04T11:30:22;1.70;;;0.60;;
59970;SDS011;45825;45.434;9.116;2022-11-04T11:32:55;1.00;;;0.50;;
59970;SDS011;45825;45.434;9.116;2022-11-04T11:35:45;0.83;;;0.33;;
59970;SDS011;45825;45.434;9.116;2022-11-04T11:38:22;0.98;;;0.50;;
59970;SDS011;45825;45.434;9.116;2022-11-04T11:40:52;5.55;;;0.75;;
59970;SDS011;45825;45.434;9.116;2022-11-04T11:43:30;2.88;;;0.90;;
59970;SDS011;45825;45.434;9.116;2022-11-04T11:45:57;2.45;;;0.80;;
59970;SDS011;45825;45.434;9.116;2022-11-04T11:48:41;1.02;;;0.50;;
59970;SDS011;45825;45.434;9.116;2022-11-04T11:51:11;1.58;;;0.55;;
59970;SDS011;45825;45.434;9.116;2022-11-04T11:53:38;2.28;;;0.63;;
59970;SDS011;45825;45.434;9.116;2022-11-04T11:56:25;3.95;;;0.68;;
59970;SDS011;45825;45.434;9.116;2022-11-04T11:59:03;2.75;;;0.47;;
59970;SDS011;45825;45.434;9.116;2022-11-04T12:01:41;2.42;;;0.55;;
59970;SDS011;45825;45.434;9.116;2022-11-04T12:04:15;1.83;;;0.50;;
59970;SDS011;45825;45.434;9.116;2022-11-04T12:20:40;1.10;;;0.47;;
59970;SDS011;45825;45.434;9.116;2022-11-04T12:25:39;0.63;;;0.40;;
59970;SDS011;45825;45.434;9.116;2022-11-04T12:28:34;1.48;;;0.50;;
59970;SDS011;45825;45.434;9.116;2022-11-04T12:33:50;1.05;;;0.38;;
59970;SDS011;45825;45.434;9.116;2022-11-04T12:42:20;0.63;;;0.38;;
59970;SDS011;45825;45.434;9.116;2022-11-04T12:47:27;1.75;;;0.43;;
59970;SDS011;45825;45.434;9.116;2022-11-04T12:50:08;2.28;;;0.40;;
59970;SDS011;45825;45.434;9.116;2022-11-04T12:58:15;1.67;;;0.63;;
59970;SDS011;45825;45.434;9.116;2022-11-04T13:00:50;2.40;;;0.60;;
59970;SDS011;45825;45.434;9.116;2022-11-04T13:03:26;0.82;;;0.40;;
59970;SDS011;45825;45.434;9.116;2022-11-04T13:06:00;0.43;;;0.40;;
59970;SDS011;45825;45.434;9.116;2022-11-04T13:11:27;1.70;;;0.50;;
59970;SDS011;45825;45.434;9.116;2022-11-04T13:14:05;2.15;;;0.60;;
59970;SDS011;45825;45.434;9.116;2022-11-04T13:16:39;1.05;;;0.40;;
59970;SDS011;45825;45.434;9.116;2022-11-04T13:19:09;0.77;;;0.50;;
59970;SDS011;45825;45.434;9.116;2022-11-04T13:21:45;1.00;;;0.45;;
59970;SDS011;45825;45.434;9.116;2022-11-04T13:24:16;2.10;;;0.60;;
59970;SDS011;45825;45.434;9.116;2022-11-04T13:26:48;1.70;;;0.60;;
59970;SDS011;45825;45.434;9.116;2022-11-04T13:29:16;1.20;;;0.50;;
59970;SDS011;45825;45.434;9.116;2022-11-04T13:32:47;0.45;;;0.32;;
59970;SDS011;45825;45.434;9.116;2022-11-04T13:34:44;1.48;;;0.40;;
59970;SDS011;45825;45.434;9.116;2022-11-04T13:39:56;1.55;;;0.38;;
59970;SDS011;45825;45.434;9.116;2022-11-04T13:42:31;1.90;;;0.40;;
59970;SDS011;45825;45.434;9.116;2022-11-04T13:45:19;1.10;;;0.50;;
59970;SDS011;45825;45.434;9.116;2022-11-04T13:50:30;1.65;;;0.38;;
59970;SDS011;45825;45.434;9.116;2022-11-04T13:52:59;0.88;;;0.30;;
59970;SDS011;45825;45.434;9.116;2022-11-04T13:55:25;1.17;;;0.50;;
59970;SDS011;45825;45.434;9.116;2022-11-04T13:57:52;1.02;;;0.50;;
59970;SDS011;45825;45.434;9.116;2022-11-04T14:00:22;1.77;;;0.50;;
59970;SDS011;45825;45.434;9.116;2022-11-04T14:02:52;2.00;;;0.50;;
59970;SDS011;45825;45.434;9.116;2022-11-04T14:18:54;2.83;;;0.95;;
59970;SDS011;45825;45.434;9.116;2022-11-04T14:21:24;2.60;;;0.65;;
59970;SDS011;45825;45.434;9.116;2022-11-04T14:23:51;1.92;;;0.43;;
59970;SDS011;45825;45.434;9.116;2022-11-04T14:26:39;1.92;;;0.60;;
59970;SDS011;45825;45.434;9.116;2022-11-04T14:29:29;1.83;;;0.57;;
59970;SDS011;45825;45.434;9.116;2022-11-04T14:31:54;2.80;;;0.60;;
59970;SDS011;45825;45.434;9.116;2022-11-04T14:34:25;1.67;;;0.50;;
59970;SDS011;45825;45.434;9.116;2022-11-04T14:36:57;2.40;;;0.50;;
59970;SDS011;45825;45.434;9.116;2022-11-04T14:39:27;0.98;;;0.50;;
59970;SDS011;45825;45.434;9.116;2022-11-04T14:42:00;1.60;;;0.50;;
59970;SDS011;45825;45.434;9.116;2022-11-04T14:46:58;1.92;;;0.50;;
59970;SDS011;45825;45.434;9.116;2022-11-04T14:49:31;1.33;;;0.60;;
59970;SDS011;45825;45.434;9.116;2022-11-04T14:52:02;1.30;;;0.60;;
59970;SDS011;45825;45.434;9.116;2022-11-04T14:54:29;1.63;;;0.47;;
59970;SDS011;45825;45.434;9.116;2022-11-04T14:57:12;1.25;;;0.45;;
59970;SDS011;45825;45.434;9.116;2022-11-04T15:02:09;1.05;;;0.52;;
59970;SDS011;45825;45.434;9.116;2022-11-04T15:04:41;1.67;;;0.60;;
59970;SDS011;45825;45.434;9.116;2022-11-04T15:07:19;1.15;;;0.60;;
59970;SDS011;45825;45.434;9.116;2022-11-04T15:09:49;2.08;;;0.90;;
59970;SDS011;45825;45.434;9.116;2022-11-04T15:12:16;0.82;;;0.55;;
59970;SDS011;45825;45.434;9.116;2022-11-04T15:15:01;0.77;;;0.52;;
59970;SDS011;45825;45.434;9.116;2022-11-04T15:17:49;3.17;;;0.90;;
59970;SDS011;45825;45.434;9.116;2022-11-04T15:20:24;1.75;;;0.70;;
59970;SDS011;45825;45.434;9.116;2022-11-04T15:22:54;1.45;;;0.70;;
59970;SDS011;45825;45.434;9.116;2022-11-04T15:25:21;1.15;;;0.60;;
59970;SDS011;45825;45.434;9.116;2022-11-04T15:27:47;2.22;;;1.00;;
59970;SDS011;45825;45.434;9.116;2022-11-04T15:30:26;2.67;;;0.70;;
59970;SDS011;45825;45.434;9.116;2022-11-04T15:33:11;1.20;;;0.60;;
59970;SDS011;45825;45.434;9.116;2022-11-04T15:35:40;1.45;;;0.80;;
59970;SDS011;45825;45.434;9.116;2022-11-04T15:38:08;3.35;;;1.05;;
59970;SDS011;45825;45.434;9.116;2022-11-04T15:40:37;1.48;;;0.93;;
59970;SDS011;45825;45.434;9.116;2022-11-04T15:43:03;3.78;;;1.25;;
59970;SDS011;45825;45.434;9.116;2022-11-04T15:50:56;4.20;;;1.00;;
59970;SDS011;45825;45.434;9.116;2022-11-04T15:53:36;1.98;;;0.90;;
59970;SDS011;45825;45.434;9.116;2022-11-04T15:56:14;4.03;;;1.05;;
59970;SDS011;45825;45.434;9.116;2022-11-04T15:58:43;3.90;;;1.00;;
59970;SDS011;45825;45.434;9.116;2022-11-04T16:01:11;2.83;;;1.13;;
59970;SDS011;45825;45.434;9.116;2022-11-04T16:03:38;3.28;;;1.00;;
59970;SDS011;45825;45.434;9.116;2022-11-04T16:06:05;1.92;;;1.20;;
59970;SDS011;45825;45.434;9.116;2022-11-04T16:08:32;1.88;;;0.80;;
59970;SDS011;45825;45.434;9.116;2022-11-04T16:11:11;2.60;;;1.00;;
59970;SDS011;45825;45.434;9.116;2022-11-04T16:13:40;5.35;;;1.00;;
59970;SDS011;45825;45.434;9.116;2022-11-04T16:16:17;3.42;;;1.27;;
59970;SDS011;45825;45.434;9.116;2022-11-04T16:19:11;4.68;;;1.30;;
59970;SDS011;45825;45.434;9.116;2022-11-04T16:21:40;3.53;;;1.20;;
59970;SDS011;45825;45.434;9.116;2022-11-04T16:24:06;8.35;;;1.90;;
59970;SDS011;45825;45.434;9.116;2022-11-04T16:26:42;4.32;;;1.60;;
59970;SDS011;45825;45.434;9.116;2022-11-04T16:29:14;3.58;;;1.67;;
59970;SDS011;45825;45.434;9.116;2022-11-04T16:31:45;4.85;;;1.40;;
59970;SDS011;45825;45.434;9.116;2022-11-04T16:34:10;3.85;;;1.27;;
59970;SDS011;45825;45.434;9.116;2022-11-04T16:36:37;2.75;;;1.23;;
59970;SDS011;45825;45.434;9.116;2022-11-04T16:39:03;4.97;;;2.00;;
59970;SDS011;45825;45.434;9.116;2022-11-04T16:41:36;4.35;;;2.15;;
59970;SDS011;45825;45.434;9.116;2022-11-04T16:46:33;4.55;;;1.38;;
59970;SDS011;45825;45.434;9.116;2022-11-04T16:48:58;2.63;;;1.38;;
59970;SDS011;45825;45.434;9.116;2022-11-04T16:51:24;2.30;;;1.05;;
59970;SDS011;45825;45.434;9.116;2022-11-04T16:53:51;4.05;;;1.30;;
59970;SDS011;45825;45.434;9.116;2022-11-04T16:56:18;3.88;;;1.50;;
59970;SDS011;45825;45.434;9.116;2022-11-04T16:58:46;4.72;;;1.80;;
59970;SDS011;45825;45.434;9.116;2022-11-04T17:01:12;6.55;;;2.83;;
59970;SDS011;45825;45.434;9.116;2022-11-04T17:03:38;9.32;;;4.45;;
59970;SDS011;45825;45.434;9.116;2022-11-04T17:06:04;7.90;;;3.55;;
59970;SDS011;45825;45.434;9.116;2022-11-04T17:08:30;12.25;;;5.20;;
59970;SDS011;45825;45.434;9.116;2022-11-04T17:10:55;7.78;;;3.60;;
59970;SDS011;45825;45.434;9.116;2022-11-04T17:13:21;10.15;;;5.18;;
59970;SDS011;45825;45.434;9.116;2022-11-04T17:15:46;9.60;;;4.15;;
59970;SDS011;45825;45.434;9.116;2022-11-04T17:18:12;5.90;;;2.85;;
59970;SDS011;45825;45.434;9.116;2022-11-04T17:20:39;6.07;;;2.63;;
59970;SDS011;45825;45.434;9.116;2022-11-04T17:23:05;6.05;;;2.42;;